| ID | Date Time (PST) |
Wind Direction |
Min Wind Speed (m/s) |
Ave Wind Speed (m/s) |
Max Wind Speed (m/s) |
Sigma Theta |
Temp (C) |
Temp (F) |
Relative Humidity (%) |
Pressure (hPa) |
Solar Rad (W/m^2) |
Precipitation (in.) |
Battery (V) |
DT/Dz (C/m) |
Stability |
| A26AA | 2026-05-02 12:30:00 | 230 | 0.2 | 2.5 | 6.9 | 33 | 24.4 | 75 | 9 | 869.6 | 1005.8 | 0 | 13.54 | -0.151 | |
| A26AA | 2026-05-02 12:15:00 | 235 | 0.3 | 3.1 | 8.4 | 24.6 | 24.1 | 75 | 10 | 869.8 | 996.3 | 0 | 13.54 | -0.145 | |
| A26AA | 2026-05-02 12:00:00 | 157 | 0.5 | 2.5 | 7 | 28.6 | 23.5 | 74 | 10 | 870 | 998.5 | 0 | 13.53 | -0.12 | |
| A26AA | 2026-05-02 11:45:00 | 158 | 0.5 | 3.4 | 6 | 20 | 23.6 | 74 | 10 | 870.2 | 1048.1 | 0 | 13.54 | -0.157 | |
| A26AA | 2026-05-02 11:30:00 | 162 | 0.6 | 2.9 | 6.1 | 33.5 | 23.5 | 74 | 10 | 870.4 | 1006.4 | 0 | 13.53 | -0.146 | |
| A26AA | 2026-05-02 11:15:00 | 096 | 0.2 | 2.4 | 6.8 | 25.2 | 22.9 | 73 | 10 | 870.7 | 1013.1 | 0 | 13.54 | -0.126 | |
| A26AA | 2026-05-02 11:00:00 | 163 | 0.5 | 3.4 | 7 | 22.6 | 23 | 73 | 10 | 870.8 | 1023.1 | 0 | 13.54 | -0.14 | |
| A26AA | 2026-05-02 10:45:00 | 183 | 0.7 | 3.6 | 7.1 | 18.3 | 22.9 | 73 | 10 | 871 | 1018.4 | 0 | 13.54 | -0.168 | |
| A26AA | 2026-05-02 10:30:00 | 095 | 0.9 | 4.8 | 8.4 | 12.2 | 22.7 | 72 | 10 | 871.1 | 981.1 | 0 | 13.54 | -0.19 | |
| A26AA | 2026-05-02 10:15:00 | 100 | 1.8 | 5.2 | 8.6 | 14.5 | 22.4 | 72 | 11 | 871.2 | 982.5 | 0 | 13.54 | -0.182 | |
| A26AA | 2026-05-02 10:00:00 | 103 | 2.1 | 5.3 | 9.2 | 14.1 | 22.1 | 71 | 11 | 871.4 | 956.2 | 0 | 13.54 | -0.17 | |
| A26AA | 2026-05-02 09:45:00 | 096 | 1.9 | 5.6 | 9.4 | 13.2 | 22.1 | 71 | 11 | 871.5 | 904.6 | 0 | 13.54 | -0.168 | |
| A26AA | 2026-05-02 09:30:00 | 100 | 2.4 | 5.8 | 9.2 | 11.3 | 21.4 | 70 | 12 | 871.5 | 895.2 | 0 | 13.55 | -0.154 | |
| A26AA | 2026-05-02 09:15:00 | 087 | 2.1 | 5.4 | 10.4 | 11.7 | 21 | 69 | 12 | 871.5 | 843.8 | 0 | 13.55 | -0.148 | |
| A26AA | 2026-05-02 09:00:00 | 088 | 1.4 | 4.9 | 8.8 | 14.7 | 20.9 | 69 | 13 | 871.6 | 796.1 | 0 | 13.55 | -0.16 | |
| A26AA | 2026-05-02 08:45:00 | 084 | 3.3 | 5.5 | 9.4 | 10.1 | 20.4 | 68 | 13 | 871.6 | 770.3 | 0 | 13.59 | -0.15 | |
| A26AA | 2026-05-02 08:30:00 | 075 | 3.8 | 5.8 | 8.4 | 9.8 | 19.9 | 67 | 14 | 871.5 | 698.3 | 0 | 13.59 | -0.136 | |
| A26AA | 2026-05-02 08:15:00 | 074 | 2.5 | 5.3 | 7.9 | 9.9 | 19.7 | 67 | 14 | 871.4 | 583.8 | 0 | 13.59 | -0.117 | |
| A26AA | 2026-05-02 08:00:00 | 077 | 3.1 | 5.5 | 7.8 | 8.4 | 19.3 | 66 | 14 | 871.4 | 560.7 | 0 | 13.59 | -0.109 | |
| A26AA | 2026-05-02 07:45:00 | 065 | 2.7 | 5.3 | 8.3 | 9.4 | 19 | 66 | 14 | 871.4 | 579 | 0 | 13.59 | -0.096 | |
| A26AA | 2026-05-02 07:30:00 | 056 | 2.9 | 5.3 | 7.6 | 9.3 | 18.5 | 65 | 14 | 871.4 | 482.2 | 0 | 13.62 | -0.079 | |
| A26AA | 2026-05-02 07:15:00 | 066 | 3.3 | 5.4 | 7.5 | 9.2 | 18.1 | 64 | 15 | 871.3 | 411 | 0 | 13.61 | -0.072 | |
| A26AA | 2026-05-02 07:00:00 | 058 | 2.7 | 5.2 | 7.6 | 10.5 | 17.8 | 64 | 15 | 871.3 | 426.1 | 0 | 13.64 | -0.056 | |
| A26AA | 2026-05-02 06:45:00 | 043 | 2.8 | 5.8 | 8.8 | 8.9 | 16.9 | 62 | 16 | 871.2 | 341.1 | 0 | 13.67 | -0.026 | |
| A26AA | 2026-05-02 06:30:00 | 041 | 2.9 | 5.5 | 8.4 | 9.2 | 16.3 | 61 | 16 | 871.1 | 240.9 | 0 | 13.41 | -0.002 | |
| A26AA | 2026-05-02 06:15:00 | 068 | 3.2 | 5.2 | 7.3 | 9.4 | 15.3 | 59 | 17 | 871 | 208.8 | 0 | 13.31 | 0.018 | |
| A26AA | 2026-05-02 06:00:00 | 081 | 2.4 | 5 | 7.2 | 7.5 | 14.5 | 58 | 18 | 871 | 150.5 | 0 | 13.08 | 0.047 | |
| A26AA | 2026-05-02 05:45:00 | 089 | 4 | 5.6 | 7.9 | 7.4 | 14 | 57 | 18 | 870.9 | 126.2 | 0 | 12.91 | 0.076 | |
| A26AA | 2026-05-02 05:30:00 | 084 | 3.5 | 5 | 6.9 | 6.8 | 12.9 | 55 | 19 | 870.8 | 85.7 | 0 | 12.57 | 0.132 | |
| A26AA | 2026-05-02 05:15:00 | 085 | 3.5 | 5.3 | 7.7 | 8 | 12.7 | 54 | 19 | 870.6 | 40.6 | 0 | 12.34 | 0.13 | |
| A26AA | 2026-05-02 05:00:00 | 073 | 2.6 | 5 | 7.5 | 9.5 | 13.2 | 55 | 18 | 870.6 | 9 | 0 | 12.25 | 0.133 | |
| A26AA | 2026-05-02 04:45:00 | 092 | 3.9 | 6.3 | 9.7 | 9.7 | 13.7 | 56 | 18 | 870.5 | 0.3 | 0 | 12.24 | 0.09 | |
| A26AA | 2026-05-02 04:30:00 | 087 | 2.8 | 4.5 | 6.7 | 11.5 | 12.5 | 54 | 19 | 870.4 | 0 | 0 | 12.25 | 0.14 | |
| A26AA | 2026-05-02 04:15:00 | 098 | 2.4 | 4.7 | 6.9 | 8.2 | 12.8 | 55 | 18 | 870.4 | 0 | 0 | 12.25 | 0.129 | |
| A26AA | 2026-05-02 04:00:00 | 098 | 2.9 | 4.8 | 6.7 | 10 | 12.6 | 54 | 19 | 870.3 | 0 | 0 | 12.26 | 0.143 | |
| A26AA | 2026-05-02 03:45:00 | 098 | 2.5 | 4.8 | 8.2 | 10.7 | 13 | 55 | 18 | 870.3 | 0 | 0 | 12.26 | 0.134 | |
| A26AA | 2026-05-02 03:30:00 | 091 | 2.1 | 4.2 | 6.2 | 10.8 | 12.8 | 55 | 18 | 870.3 | 0 | 0 | 12.27 | 0.148 | |
| A26AA | 2026-05-02 03:15:00 | 093 | 2.3 | 4.5 | 7.3 | 10.3 | 12.7 | 54 | 18 | 870.3 | 0 | 0 | 12.28 | 0.148 | |
| A26AA | 2026-05-02 03:00:00 | 086 | 2.6 | 4.3 | 6.6 | 10.6 | 12.8 | 55 | 18 | 870.3 | 0 | 0 | 12.29 | 0.131 | |
| A26AA | 2026-05-02 02:45:00 | 095 | 2 | 5.3 | 7.8 | 8 | 13.4 | 56 | 18 | 870.3 | 0 | 0 | 12.29 | 0.138 | |
| A26AA | 2026-05-02 02:30:00 | 093 | 2.6 | 5.2 | 7.1 | 7.6 | 12.5 | 54 | 19 | 870.4 | 0 | 0 | 12.3 | 0.249 | |
| A26AA | 2026-05-02 02:15:00 | 084 | 2.9 | 4.6 | 6.4 | 4.5 | 11.8 | 53 | 20 | 870.5 | 0 | 0 | 12.31 | 0.212 | |
| A26AA | 2026-05-02 02:00:00 | 084 | 3.5 | 5 | 6.7 | 4.7 | 12.2 | 54 | 19 | 870.4 | 0 | 0 | 12.32 | 0.247 | |
| A26AA | 2026-05-02 01:45:00 | 087 | 2.9 | 4.5 | 6.9 | 7 | 11.9 | 53 | 20 | 870.4 | 0 | 0 | 12.33 | 0.358 | |
| A26AA | 2026-05-02 01:30:00 | 083 | 3.1 | 4.4 | 5.6 | 4.5 | 10.8 | 51 | 21 | 870.5 | 0 | 0 | 12.33 | 0.477 | |
| A26AA | 2026-05-02 01:15:00 | 071 | 3.2 | 4.1 | 4.8 | 4 | 11.7 | 53 | 20 | 870.5 | 0 | 0 | 12.34 | 0.363 | |
| A26AA | 2026-05-02 01:00:00 | 076 | 3.2 | 3.9 | 5 | 7 | 10.7 | 51 | 22 | 870.6 | 0 | 0 | 12.35 | 0.375 | |
| A26AA | 2026-05-02 00:45:00 | 074 | 3.3 | 4 | 4.8 | 5 | 11.3 | 52 | 21 | 870.7 | 0 | 0 | 12.36 | 0.373 | |
| A26AA | 2026-05-02 00:30:00 | 076 | 3.3 | 4.1 | 4.7 | 3.1 | 10.8 | 51 | 21 | 870.7 | 0 | 0 | 12.36 | 0.443 | |
| A26AA | 2026-05-02 00:15:00 | 077 | 2.8 | 3.4 | 3.9 | 3.6 | 11.2 | 52 | 21 | 870.6 | 0 | 0 | 12.37 | 0.518 | |
| A26AA | 2026-05-02 00:00:00 | 082 | 2.6 | 3.4 | 4.5 | 8.2 | 11.9 | 53 | 20 | 870.5 | 0 | 0 | 12.37 | 0.355 | |
| A26AA | 2026-05-01 23:45:00 | 092 | 2 | 3.1 | 4.2 | 7.2 | 12.2 | 53 | 20 | 870.5 | 0 | 0 | 12.38 | 0.313 | |
| A26AA | 2026-05-01 23:30:00 | 092 | 2.5 | 3.6 | 4.7 | 5.6 | 12.2 | 54 | 20 | 870.5 | 0 | 0 | 12.39 | 0.397 | |
| A26AA | 2026-05-01 23:15:00 | 090 | 2.5 | 3.5 | 4.6 | 5.2 | 11.5 | 52 | 21 | 870.4 | 0 | 0 | 12.39 | 0.451 | |
| A26AA | 2026-05-01 23:00:00 | 086 | 2.5 | 3.3 | 4.1 | 6.6 | 11.6 | 52 | 21 | 870.4 | 0 | 0 | 12.4 | 0.321 | |
| A26AA | 2026-05-01 22:45:00 | 090 | 2.3 | 3.1 | 4.1 | 5.4 | 11.9 | 53 | 21 | 870.4 | 0 | 0 | 12.41 | 0.364 | |
| A26AA | 2026-05-01 22:30:00 | 076 | 2.5 | 3 | 3.6 | 5.2 | 12.1 | 53 | 21 | 870.3 | 0 | 0 | 12.42 | 0.394 | |
| A26AA | 2026-05-01 22:15:00 | 088 | 2.6 | 3.3 | 4 | 4.1 | 11.8 | 53 | 21 | 870.3 | 0 | 0 | 12.42 | 0.521 | |
| A26AA | 2026-05-01 22:00:00 | 087 | 2.6 | 3.4 | 4.7 | 4.5 | 12.3 | 54 | 20 | 870.1 | 0 | 0 | 12.43 | 0.513 | |
| A26AA | 2026-05-01 21:45:00 | 083 | 2.3 | 2.9 | 3.8 | 4.7 | 13.4 | 56 | 19 | 870.2 | 0 | 0 | 12.43 | 0.317 | |
| A26AA | 2026-05-01 21:30:00 | 090 | 1.9 | 3.6 | 5.5 | 6.7 | 15 | 59 | 17 | 870.1 | 0 | 0 | 12.43 | 0.243 | |
| A26AA | 2026-05-01 21:15:00 | 093 | 1.4 | 3.6 | 5.3 | 8.6 | 15.5 | 60 | 17 | 870.1 | 0 | 0 | 12.44 | 0.209 | |
| A26AA | 2026-05-01 21:00:00 | 095 | 1.7 | 3 | 5 | 11.1 | 14.4 | 58 | 18 | 870 | 0 | 0 | 12.44 | 0.266 | |
| A26AA | 2026-05-01 20:45:00 | 091 | 1.7 | 2.8 | 4.1 | 9.2 | 14.2 | 57 | 19 | 869.9 | 0 | 0 | 12.45 | 0.288 | |
| A26AA | 2026-05-01 20:30:00 | 086 | 2.2 | 2.9 | 3.6 | 4.9 | 13.3 | 56 | 20 | 869.8 | 0 | 0 | 12.46 | 0.451 | |
| A26AA | 2026-05-01 20:15:00 | 081 | 1.9 | 2.9 | 3.9 | 8 | 14.1 | 57 | 19 | 869.6 | 0 | 0 | 12.46 | 0.372 | |
| A26AA | 2026-05-01 20:00:00 | 084 | 1.3 | 2.9 | 4.4 | 7.5 | 14.3 | 57 | 19 | 869.5 | 0 | 0 | 12.47 | 0.373 | |
| A26AA | 2026-05-01 19:45:00 | 085 | 1.9 | 2.5 | 3.4 | 5.8 | 13.9 | 57 | 19 | 869.2 | 0 | 0 | 12.47 | 0.395 | |
| A26AA | 2026-05-01 19:30:00 | 080 | 1.7 | 2.4 | 3.2 | 6.8 | 14 | 57 | 19 | 869 | 0 | 0 | 12.47 | 0.407 | |
| A26AA | 2026-05-01 19:15:00 | 075 | 1.4 | 1.9 | 2.4 | 8 | 14.4 | 57 | 19 | 868.8 | 0 | 0 | 12.48 | 0.392 | |
| A26AA | 2026-05-01 19:00:00 | 071 | 1.4 | 2 | 3.5 | 6.3 | 16.2 | 61 | 17 | 868.7 | 0 | 0 | 12.49 | 0.264 | |
| A26AA | 2026-05-01 18:45:00 | 054 | 2.6 | 3.7 | 4.9 | 3.8 | 18.5 | 65 | 14 | 868.6 | 0 | 0 | 12.49 | 0.183 | |
| A26AA | 2026-05-01 18:30:00 | 044 | 2.2 | 3.5 | 5.1 | 5.2 | 19.5 | 67 | 14 | 868.5 | 3.8 | 0 | 12.5 | 0.117 | |
| A26AA | 2026-05-01 18:15:00 | 046 | 2.5 | 3.8 | 5.9 | 7.5 | 20.7 | 69 | 13 | 868.4 | 43.1 | 0 | 12.53 | 0.056 | |
| A26AA | 2026-05-01 18:00:00 | 060 | 2.8 | 4.8 | 6.7 | 7 | 21.5 | 70 | 12 | 868.3 | 97.2 | 0 | 12.55 | 0.026 | |
| A26AA | 2026-05-01 17:45:00 | 056 | 2.1 | 5.1 | 7 | 10.3 | 22 | 71 | 12 | 868.2 | 141.8 | 0 | 12.57 | -0.006 | |
| A26AA | 2026-05-01 17:30:00 | 024 | 1.3 | 4 | 6.4 | 12.3 | 22.5 | 72 | 12 | 868.2 | 201 | 0 | 12.59 | -0.021 | |
| A26AA | 2026-05-01 17:15:00 | 056 | 1.6 | 4.9 | 7.8 | 14.3 | 22.6 | 72 | 12 | 868.2 | 231.7 | 0 | 12.6 | -0.035 | |
| A26AA | 2026-05-01 17:00:00 | 080 | 2.4 | 5 | 7.6 | 8.4 | 22.8 | 73 | 12 | 868.2 | 316.1 | 0 | 12.63 | -0.061 | |
| A26AA | 2026-05-01 16:45:00 | 058 | 2.4 | 5.3 | 8.2 | 12.1 | 23.2 | 73 | 11 | 868.2 | 370.6 | 0 | 12.68 | -0.091 | |
| A26AA | 2026-05-01 16:30:00 | 051 | 2.7 | 5.7 | 11.4 | 14.3 | 23.3 | 74 | 11 | 868.1 | 429.5 | 0 | 13.21 | -0.091 | |
| A26AA | 2026-05-01 16:15:00 | 070 | 1.4 | 5.7 | 10.1 | 13.7 | 23.2 | 73 | 12 | 868.2 | 491.4 | 0 | 13.57 | -0.108 | |
| A26AA | 2026-05-01 16:00:00 | 024 | 1 | 4.5 | 9.2 | 19.7 | 23.4 | 74 | 12 | 868.3 | 546.2 | 0 | 13.57 | -0.112 | |
| A26AA | 2026-05-01 15:45:00 | 034 | 1.3 | 4.4 | 7.9 | 14.3 | 23.6 | 74 | 13 | 868.3 | 607.1 | 0 | 13.57 | -0.116 | |
| A26AA | 2026-05-01 15:30:00 | 073 | 0.4 | 2.5 | 11.3 | 20.4 | 22 | 71 | 14 | 868.3 | 303.1 | 0 | 12.99 | -0.038 | |
| A26AA | 2026-05-01 15:15:00 | 064 | 0.9 | 3.7 | 7.8 | 15.3 | 22.6 | 72 | 14 | 868.3 | 295 | 0 | 13.21 | -0.071 | |
| A26AA | 2026-05-01 15:00:00 | 020 | 0 | 2.8 | 9.5 | 42.2 | 22.9 | 73 | 13 | 868.4 | 451.1 | 0 | 13.47 | -0.095 | |
| A26AA | 2026-05-01 14:45:00 | 021 | 0 | 3.8 | 8.7 | 23.1 | 23.4 | 74 | 13 | 868.6 | 747.7 | 0 | 13.54 | -0.151 | |
| A26AA | 2026-05-01 14:30:00 | 265 | 0.1 | 1.8 | 3.5 | 41 | 23.1 | 73 | 14 | 868.8 | 837.9 | 0 | 13.53 | -0.134 | |
| A26AA | 2026-05-01 14:15:00 | 027 | 0.6 | 3.9 | 7.5 | 15.2 | 23.2 | 73 | 14 | 869 | 881.4 | 0 | 13.53 | -0.179 | |
| A26AA | 2026-05-01 14:00:00 | 039 | 1.2 | 4.4 | 7.8 | 36.5 | 22.7 | 73 | 14 | 869.1 | 669 | 0 | 13.54 | -0.124 | |
| A26AA | 2026-05-01 13:45:00 | 066 | 1.5 | 4.9 | 9.4 | 12.5 | 22.7 | 72 | 14 | 869.1 | 533.5 | 0 | 13.54 | -0.153 | |
| A26AA | 2026-05-01 13:30:00 | 021 | 1 | 3.3 | 7.5 | 30.2 | 23.1 | 73 | 14 | 869.3 | 972.6 | 0 | 13.54 | -0.155 | |
| A26AA | 2026-05-01 13:15:00 | 016 | 0.2 | 3 | 8.9 | 41 | 22.3 | 72 | 15 | 869.5 | 861.7 | 0 | 13.54 | -0.132 | |
| A26AA | 2026-05-01 13:00:00 | 054 | 0.8 | 4.6 | 8.2 | 17.8 | 23.2 | 73 | 14 | 869.6 | 1104.6 | 0 | 13.54 | -0.235 | |
| A26AA | 2026-05-01 12:45:00 | 050 | 1.7 | 5.4 | 8.8 | 18.9 | 23.3 | 73 | 15 | 869.6 | 1097.6 | 0 | 13.54 | -0.218 | |